createdAt,value
2019-05-19T00:02:22.803Z,6.60
2019-05-19T00:04:51.856Z,7.83
2019-05-19T00:07:20.819Z,8.27
2019-05-19T00:09:50.297Z,9.33
2019-05-19T00:12:19.212Z,9.03
2019-05-19T00:14:48.225Z,9.70
2019-05-19T00:17:17.182Z,9.27
2019-05-19T00:19:46.199Z,9.70
2019-05-19T00:22:15.231Z,9.30
2019-05-19T00:24:44.191Z,8.97
2019-05-19T00:27:13.195Z,9.53
2019-05-19T00:29:42.138Z,9.10
2019-05-19T00:32:11.159Z,8.80
2019-05-19T00:34:40.133Z,9.40
2019-05-19T00:37:09.112Z,9.30
2019-05-19T00:39:38.063Z,9.00
2019-05-19T00:42:07.075Z,9.00
2019-05-19T00:44:36.091Z,8.80
2019-05-19T00:47:05.051Z,9.10
2019-05-19T00:49:41.312Z,8.90
2019-05-19T00:52:04.634Z,8.77
2019-05-19T00:54:33.841Z,9.37
2019-05-19T00:57:03.224Z,10.13
2019-05-19T00:59:32.452Z,9.73
2019-05-19T01:02:01.470Z,8.90
2019-05-19T01:04:30.559Z,9.10
2019-05-19T01:06:59.519Z,8.83
2019-05-19T01:09:28.519Z,9.17
2019-05-19T01:11:57.556Z,8.90
2019-05-19T01:14:26.559Z,8.23
2019-05-19T01:16:55.543Z,8.93
2019-05-19T01:19:24.522Z,8.43
2019-05-19T01:21:53.747Z,7.87
2019-05-19T01:24:22.697Z,7.40
2019-05-19T01:26:51.687Z,8.00
2019-05-19T01:29:20.659Z,8.63
2019-05-19T01:31:49.682Z,7.87
2019-05-19T01:34:18.662Z,7.83
2019-05-19T01:36:47.669Z,8.13
2019-05-19T01:39:16.638Z,8.27
2019-05-19T01:41:45.672Z,7.80
2019-05-19T01:44:14.611Z,8.53
2019-05-19T01:46:43.646Z,9.43
2019-05-19T01:49:12.648Z,7.87
2019-05-19T01:51:41.619Z,8.67
2019-05-19T01:54:10.868Z,7.50
2019-05-19T01:56:40.112Z,8.60
2019-05-19T01:59:09.060Z,7.77
2019-05-19T02:01:38.096Z,7.40
2019-05-19T02:04:07.063Z,8.07
2019-05-19T02:06:36.099Z,8.00
2019-05-19T02:09:07.022Z,8.47
2019-05-19T02:11:36.019Z,8.03
2019-05-19T02:14:05.071Z,8.30
2019-05-19T02:16:34.067Z,8.77
2019-05-19T02:19:03.047Z,8.47
2019-05-19T02:21:32.043Z,7.90
2019-05-19T02:24:00.991Z,7.60
2019-05-19T02:26:30.111Z,7.70
2019-05-19T02:28:59.049Z,8.27
2019-05-19T02:31:28.067Z,8.23
2019-05-19T02:33:57.086Z,8.30
2019-05-19T02:36:26.088Z,7.60
2019-05-19T02:38:55.055Z,8.10
2019-05-19T02:41:25.488Z,9.50
2019-05-19T02:43:54.799Z,7.93
2019-05-19T02:46:24.998Z,8.40
2019-05-19T02:48:54.669Z,8.37
2019-05-19T02:51:25.127Z,8.20
2019-05-19T02:53:55.176Z,8.50
2019-05-19T02:56:24.679Z,7.57
2019-05-19T02:58:53.743Z,8.57
2019-05-19T03:01:22.735Z,8.00
2019-05-19T03:03:51.738Z,7.97
2019-05-19T03:06:20.724Z,8.30
2019-05-19T03:08:49.677Z,8.43
2019-05-19T03:11:18.684Z,8.47
2019-05-19T03:13:47.685Z,9.10
2019-05-19T03:16:16.623Z,9.77
2019-05-19T03:18:45.630Z,8.40
2019-05-19T03:21:14.655Z,8.67
2019-05-19T03:23:43.621Z,8.67
2019-05-19T03:26:12.618Z,7.97
2019-05-19T03:28:41.579Z,8.03
2019-05-19T03:31:29.443Z,8.37
2019-05-19T03:33:58.428Z,8.00
2019-05-19T03:36:27.428Z,8.20
2019-05-19T03:38:56.392Z,7.30
2019-05-19T03:41:25.408Z,7.40
2019-05-19T03:43:54.345Z,6.77
2019-05-19T03:46:23.348Z,7.13
2019-05-19T03:48:52.322Z,6.63
2019-05-19T03:51:30.943Z,6.40
2019-05-19T03:53:51.943Z,6.40
2019-05-19T03:56:20.954Z,6.20
2019-05-19T03:58:49.955Z,6.53
2019-05-19T04:01:19.077Z,6.00
2019-05-19T04:03:48.078Z,6.53
2019-05-19T04:06:17.032Z,6.50
2019-05-19T04:08:46.118Z,7.17
2019-05-19T04:11:15.243Z,6.40
2019-05-19T04:13:44.227Z,7.37
2019-05-19T04:16:13.168Z,7.27
2019-05-19T04:18:42.168Z,7.27
2019-05-19T04:21:11.170Z,7.30
2019-05-19T04:23:40.124Z,7.43
2019-05-19T04:26:09.104Z,7.53
2019-05-19T04:28:38.047Z,7.37
2019-05-19T04:31:07.060Z,7.73
2019-05-19T04:33:36.013Z,7.80
2019-05-19T04:36:05.008Z,7.73
2019-05-19T04:38:33.984Z,7.93
2019-05-19T04:41:02.967Z,8.70
2019-05-19T04:43:31.985Z,7.90
2019-05-19T04:46:00.908Z,8.43
2019-05-19T04:48:29.919Z,8.10
2019-05-19T04:50:58.886Z,8.13
2019-05-19T04:53:27.871Z,7.87
2019-05-19T04:55:56.876Z,8.07
2019-05-19T04:58:25.839Z,9.13
2019-05-19T05:00:54.856Z,9.50
2019-05-19T05:03:23.847Z,8.93
2019-05-19T05:05:52.815Z,8.23
2019-05-19T05:08:29.483Z,8.57
2019-05-19T05:10:52.426Z,8.70
2019-05-19T05:13:21.386Z,8.17
2019-05-19T05:15:50.378Z,7.30
2019-05-19T05:18:19.387Z,7.93
2019-05-19T05:20:48.333Z,7.80
2019-05-19T05:23:17.341Z,8.10
2019-05-19T05:25:46.415Z,9.13
2019-05-19T05:28:15.425Z,9.20
2019-05-19T05:30:44.433Z,8.63
2019-05-19T05:33:13.383Z,9.00
2019-05-19T05:35:42.454Z,8.70
2019-05-19T05:38:11.473Z,8.10
2019-05-19T05:40:40.450Z,8.23
2019-05-19T05:43:09.435Z,8.13
2019-05-19T05:45:38.402Z,9.50
2019-05-19T05:48:07.397Z,9.00
2019-05-19T05:50:36.377Z,9.47
2019-05-19T05:53:05.392Z,9.00
2019-05-19T05:55:34.406Z,8.27
2019-05-19T05:58:03.371Z,8.33
2019-05-19T06:00:32.360Z,8.17
2019-05-19T06:03:01.339Z,8.73
2019-05-19T06:05:30.472Z,8.00
2019-05-19T06:07:59.481Z,7.67
2019-05-19T06:10:28.418Z,7.23
2019-05-19T06:12:57.398Z,8.23
2019-05-19T06:15:26.363Z,8.47
2019-05-19T06:17:55.368Z,7.60
2019-05-19T06:20:24.313Z,6.83
2019-05-19T06:22:56.977Z,7.87
2019-05-19T06:25:23.955Z,7.10
2019-05-19T06:27:52.983Z,7.60
2019-05-19T06:30:21.935Z,6.90
2019-05-19T06:32:52.218Z,6.70
2019-05-19T06:35:21.319Z,5.90
2019-05-19T06:37:50.303Z,6.60
2019-05-19T06:40:19.360Z,5.80
2019-05-19T06:42:48.350Z,5.37
2019-05-19T06:45:18.003Z,7.37
2019-05-19T06:47:47.048Z,6.90
2019-05-19T06:50:16.083Z,6.33
2019-05-19T06:52:45.075Z,6.33
2019-05-19T06:55:14.178Z,6.00
2019-05-19T06:57:43.143Z,6.20
2019-05-19T07:00:12.430Z,5.50
2019-05-19T07:02:41.466Z,5.80
2019-05-19T07:05:10.476Z,6.13
2019-05-19T07:07:39.467Z,5.80
2019-05-19T07:10:08.919Z,5.73
2019-05-19T07:12:37.986Z,5.70
2019-05-19T07:15:07.778Z,5.70
2019-05-19T07:17:36.768Z,5.87
2019-05-19T07:20:05.777Z,5.47
2019-05-19T07:22:37.571Z,5.90
2019-05-19T07:25:05.699Z,5.37
2019-05-19T07:27:34.744Z,5.60
2019-05-19T07:30:03.831Z,5.60
2019-05-19T07:32:32.775Z,5.43
2019-05-19T07:35:01.769Z,5.60
2019-05-19T07:37:30.785Z,5.43
2019-05-19T07:39:59.779Z,5.93
2019-05-19T07:42:28.760Z,5.60
2019-05-19T07:44:57.751Z,5.90
2019-05-19T07:47:26.771Z,5.77
2019-05-19T07:49:55.726Z,5.40
2019-05-19T07:52:24.699Z,5.70
2019-05-19T07:54:53.703Z,5.80
2019-05-19T07:57:22.641Z,6.23
2019-05-19T07:59:51.634Z,5.80
2019-05-19T08:02:20.604Z,5.77
2019-05-19T08:04:49.602Z,6.10
2019-05-19T08:07:18.675Z,5.60
2019-05-19T08:09:47.627Z,6.47
2019-05-19T08:12:16.847Z,6.63
2019-05-19T08:14:45.831Z,6.17
2019-05-19T08:17:14.853Z,5.57
2019-05-19T08:19:43.834Z,5.60
2019-05-19T08:22:12.787Z,5.77
2019-05-19T08:24:41.795Z,5.50
2019-05-19T08:27:10.735Z,5.20
2019-05-19T08:29:39.687Z,5.30
2019-05-19T08:32:08.677Z,5.27
2019-05-19T08:34:37.678Z,5.90
2019-05-19T08:37:06.675Z,5.50
2019-05-19T08:39:35.625Z,5.30
2019-05-19T08:42:04.687Z,5.30
2019-05-19T08:44:33.638Z,5.07
2019-05-19T08:47:02.640Z,5.67
2019-05-19T08:49:31.621Z,4.83
2019-05-19T08:52:00.619Z,5.27
2019-05-19T08:54:29.579Z,5.33
2019-05-19T08:56:58.566Z,5.70
2019-05-19T08:59:27.529Z,4.97
2019-05-19T09:01:56.500Z,4.97
2019-05-19T09:04:25.461Z,5.10
2019-05-19T09:06:54.498Z,5.30
2019-05-19T09:09:23.494Z,5.33
2019-05-19T09:11:52.482Z,5.10
2019-05-19T09:14:21.474Z,5.40
2019-05-19T09:16:50.471Z,5.40
2019-05-19T09:19:19.463Z,5.50
2019-05-19T09:21:48.478Z,6.20
2019-05-19T09:24:29.522Z,6.13
2019-05-19T09:26:48.091Z,6.17
2019-05-19T09:29:17.058Z,6.13
2019-05-19T09:31:46.054Z,6.20
2019-05-19T09:34:15.008Z,6.43
2019-05-19T09:36:43.983Z,6.57
2019-05-19T09:39:12.942Z,6.90
2019-05-19T09:41:41.931Z,6.50
2019-05-19T09:44:10.987Z,6.67
2019-05-19T09:46:39.999Z,6.93
2019-05-19T09:49:46.159Z,6.43
2019-05-19T09:52:17.106Z,6.37
2019-05-19T09:54:46.087Z,6.63
2019-05-19T09:57:15.236Z,6.30
2019-05-19T09:59:44.290Z,6.50
2019-05-19T10:02:13.293Z,6.50
2019-05-19T10:04:42.262Z,6.50
2019-05-19T10:07:11.324Z,6.80
2019-05-19T10:09:59.463Z,6.43
2019-05-19T10:12:28.403Z,6.57
2019-05-19T10:14:57.359Z,5.97
2019-05-19T10:17:26.423Z,6.40
2019-05-19T10:19:55.526Z,6.07
2019-05-19T10:22:24.588Z,6.07
2019-05-19T10:25:10.528Z,6.10
2019-05-19T10:27:24.185Z,6.20
2019-05-19T10:29:53.183Z,6.23
2019-05-19T10:32:22.142Z,5.43
2019-05-19T10:34:51.126Z,5.23
2019-05-19T10:37:20.171Z,4.80
2019-05-19T10:39:49.173Z,4.40
2019-05-19T10:42:18.137Z,4.37
2019-05-19T10:44:47.167Z,4.57
2019-05-19T10:47:16.183Z,4.73
2019-05-19T10:49:45.131Z,4.53
2019-05-19T10:52:14.120Z,4.60
2019-05-19T10:54:43.069Z,4.17
2019-05-19T10:57:12.039Z,4.40
2019-05-19T10:59:40.986Z,4.37
2019-05-19T11:02:09.978Z,4.40
2019-05-19T11:04:38.982Z,4.63
2019-05-19T11:07:07.984Z,4.10
2019-05-19T11:09:36.986Z,3.87
2019-05-19T11:12:05.999Z,4.30
2019-05-19T11:14:34.987Z,4.10
2019-05-19T11:17:04.062Z,3.93
2019-05-19T11:19:33.051Z,4.20
2019-05-19T11:22:02.045Z,4.03
2019-05-19T11:24:31.035Z,3.47
2019-05-19T11:26:59.993Z,3.50
2019-05-19T11:29:28.998Z,3.47
2019-05-19T11:31:57.939Z,3.13
2019-05-19T11:34:26.955Z,3.30
2019-05-19T11:36:55.914Z,3.20
2019-05-19T11:39:24.873Z,3.43
2019-05-19T11:41:53.818Z,3.37
2019-05-19T11:44:22.782Z,3.67
2019-05-19T11:46:51.790Z,3.30
2019-05-19T11:49:20.740Z,3.17
2019-05-19T11:51:49.735Z,3.20
2019-05-19T11:54:18.730Z,3.03
2019-05-19T11:56:47.690Z,3.03
2019-05-19T11:59:16.705Z,3.10
2019-05-19T12:01:45.707Z,2.90
2019-05-19T12:04:14.723Z,2.90
2019-05-19T12:06:43.792Z,3.03
2019-05-19T12:09:12.804Z,3.23
2019-05-19T12:11:41.742Z,3.13
2019-05-19T12:14:10.722Z,3.03
2019-05-19T12:16:39.723Z,3.20
2019-05-19T12:19:08.715Z,3.30
2019-05-19T12:21:37.659Z,3.30
2019-05-19T12:24:06.603Z,2.87
2019-05-19T12:26:35.559Z,3.10
2019-05-19T12:29:04.517Z,2.97
2019-05-19T12:31:33.521Z,3.47
2019-05-19T12:34:02.473Z,3.00
2019-05-19T12:36:31.410Z,2.70
2019-05-19T12:39:00.413Z,3.13
2019-05-19T12:41:29.368Z,3.13
2019-05-19T12:43:58.376Z,2.90
2019-05-19T12:46:27.323Z,2.80
2019-05-19T12:48:56.336Z,2.73
2019-05-19T12:51:26.921Z,2.70
2019-05-19T12:53:56.241Z,2.60
2019-05-19T12:56:38.597Z,2.60
2019-05-19T12:58:55.831Z,2.63
2019-05-19T13:01:24.768Z,2.70
2019-05-19T13:03:53.767Z,2.97
2019-05-19T13:06:22.764Z,2.40
2019-05-19T13:08:51.765Z,2.47
2019-05-19T13:11:20.770Z,2.17
2019-05-19T13:13:49.767Z,2.50
2019-05-19T13:16:19.562Z,2.40
2019-05-19T13:18:48.603Z,2.40
2019-05-19T13:21:17.514Z,2.43
2019-05-19T13:23:46.510Z,2.47
2019-05-19T13:26:15.469Z,2.90
2019-05-19T13:28:44.459Z,2.40
2019-05-19T13:31:13.507Z,2.70
2019-05-19T13:33:42.523Z,2.23
2019-05-19T13:36:11.551Z,2.13
2019-05-19T13:38:40.481Z,2.60
2019-05-19T13:41:09.475Z,2.57
2019-05-19T13:43:38.417Z,2.53
2019-05-19T13:46:07.463Z,2.33
2019-05-19T13:48:36.438Z,2.40
2019-05-19T13:51:05.403Z,2.10
2019-05-19T13:53:34.402Z,2.20
2019-05-19T13:56:03.363Z,2.50
2019-05-19T13:58:32.352Z,2.40
2019-05-19T14:01:01.410Z,2.23
2019-05-19T14:03:30.435Z,2.23
2019-05-19T14:05:59.355Z,2.33
2019-05-19T14:08:28.333Z,2.30
2019-05-19T14:10:57.288Z,2.10
2019-05-19T14:13:26.306Z,2.17
2019-05-19T14:15:55.265Z,2.00
2019-05-19T14:18:24.311Z,2.53
2019-05-19T14:20:53.259Z,2.30
2019-05-19T14:23:22.252Z,2.17
2019-05-19T14:25:51.203Z,1.93
2019-05-19T14:28:20.242Z,2.30
2019-05-19T14:30:49.223Z,2.33
2019-05-19T14:33:18.166Z,2.60
2019-05-19T14:35:47.154Z,2.40
2019-05-19T14:38:16.106Z,2.20
2019-05-19T14:40:45.099Z,1.90
2019-05-19T14:43:14.236Z,2.20
2019-05-19T14:45:43.302Z,2.50
2019-05-19T14:48:12.282Z,1.93
2019-05-19T14:50:41.335Z,2.10
2019-05-19T14:53:10.315Z,2.03
2019-05-19T14:55:39.333Z,2.40
2019-05-19T14:58:08.323Z,2.77
2019-05-19T15:00:37.308Z,2.00
2019-05-19T15:03:06.238Z,2.23
2019-05-19T15:05:35.195Z,2.20
2019-05-19T15:08:04.178Z,2.37
2019-05-19T15:10:33.130Z,2.10
2019-05-19T15:13:02.126Z,2.20
2019-05-19T15:15:31.075Z,2.37
2019-05-19T15:18:00.067Z,2.30
2019-05-19T15:20:29.071Z,2.20
2019-05-19T15:22:58.127Z,2.40
2019-05-19T15:25:27.084Z,2.40
2019-05-19T15:28:00.301Z,2.27
2019-05-19T15:30:26.659Z,2.53
2019-05-19T15:32:55.653Z,2.77
2019-05-19T15:35:24.647Z,2.80
2019-05-19T15:37:53.644Z,2.90
2019-05-19T15:40:22.581Z,3.00
2019-05-19T15:42:51.574Z,3.07
2019-05-19T15:45:20.553Z,2.77
2019-05-19T15:47:49.576Z,2.77
2019-05-19T15:50:18.509Z,2.57
2019-05-19T15:52:47.548Z,2.10
2019-05-19T15:55:16.502Z,2.20
2019-05-19T15:57:45.502Z,1.50
2019-05-19T16:00:14.485Z,2.03
2019-05-19T16:02:43.481Z,1.87
2019-05-19T16:05:12.531Z,1.90
2019-05-19T16:07:41.531Z,2.00
2019-05-19T16:10:10.683Z,2.13
2019-05-19T16:12:39.695Z,2.10
2019-05-19T16:15:08.801Z,1.70
2019-05-19T16:17:37.751Z,1.70
2019-05-19T16:20:06.848Z,2.17
2019-05-19T16:22:35.945Z,2.20
2019-05-19T16:25:05.144Z,1.80
2019-05-19T16:27:34.173Z,1.80
2019-05-19T16:30:03.111Z,1.97
2019-05-19T16:32:32.111Z,2.03
2019-05-19T16:35:01.063Z,1.80
2019-05-19T16:37:30.084Z,2.17
2019-05-19T16:39:59.019Z,2.03
2019-05-19T16:42:28.006Z,2.07
2019-05-19T16:44:56.960Z,1.80
2019-05-19T16:47:25.942Z,2.03
2019-05-19T16:49:54.913Z,2.10
2019-05-19T16:52:23.904Z,1.80
2019-05-19T16:55:10.559Z,2.03
2019-05-19T16:57:39.561Z,2.10
2019-05-19T17:00:08.619Z,1.90
2019-05-19T17:02:37.705Z,1.73
2019-05-19T17:05:06.867Z,2.03
2019-05-19T17:07:35.824Z,1.90
2019-05-19T17:10:05.099Z,1.87
2019-05-19T17:12:34.059Z,2.00
2019-05-19T17:15:03.075Z,2.50
2019-05-19T17:17:32.037Z,2.47
2019-05-19T17:20:00.992Z,2.20
2019-05-19T17:22:29.969Z,2.53
2019-05-19T17:25:00.438Z,2.00
2019-05-19T17:27:29.515Z,2.37
2019-05-19T17:29:58.463Z,2.60
2019-05-19T17:32:27.450Z,2.50
2019-05-19T17:34:56.442Z,2.40
2019-05-19T17:37:25.430Z,2.20
2019-05-19T17:39:54.387Z,2.00
2019-05-19T17:42:23.366Z,2.53
2019-05-19T17:44:52.356Z,2.43
2019-05-19T17:47:21.397Z,2.57
2019-05-19T17:49:50.327Z,2.03
2019-05-19T17:52:19.328Z,2.07
2019-05-19T17:54:48.340Z,2.43
2019-05-19T17:57:17.380Z,2.57
2019-05-19T17:59:48.139Z,2.40
2019-05-19T18:02:17.091Z,2.70
2019-05-19T18:04:46.090Z,2.47
2019-05-19T18:07:15.056Z,1.90
2019-05-19T18:09:44.063Z,2.30
2019-05-19T18:12:13.004Z,2.50
2019-05-19T18:14:41.994Z,2.10
2019-05-19T18:17:11.011Z,2.00
2019-05-19T18:19:39.992Z,2.20
2019-05-19T18:22:08.979Z,2.50
2019-05-19T18:24:37.998Z,2.37
2019-05-19T18:27:09.782Z,2.20
2019-05-19T18:29:38.734Z,2.47
2019-05-19T18:32:07.718Z,2.40
2019-05-19T18:34:36.675Z,2.20
2019-05-19T18:37:05.677Z,2.40
2019-05-19T18:39:34.663Z,2.00
2019-05-19T18:42:03.616Z,2.30
2019-05-19T18:44:32.615Z,2.10
2019-05-19T18:47:01.570Z,2.30
2019-05-19T18:49:30.558Z,2.30
2019-05-19T18:51:59.549Z,1.97
2019-05-19T18:54:28.551Z,2.20
2019-05-19T18:56:57.552Z,2.30
2019-05-19T18:59:26.573Z,2.00
2019-05-19T19:01:55.616Z,2.10
2019-05-19T19:04:24.713Z,2.20
2019-05-19T19:06:53.663Z,2.10
2019-05-19T19:09:22.655Z,2.20
2019-05-19T19:11:51.609Z,2.30
2019-05-19T19:14:20.594Z,2.40
2019-05-19T19:16:49.538Z,1.90
2019-05-19T19:19:18.539Z,2.17
2019-05-19T19:21:47.539Z,2.03
2019-05-19T19:24:16.483Z,1.97
2019-05-19T19:26:45.537Z,1.77
2019-05-19T19:29:14.528Z,1.57
2019-05-19T19:31:48.743Z,1.80
2019-05-19T19:34:14.082Z,1.77
2019-05-19T19:36:43.035Z,1.60
2019-05-19T19:39:12.072Z,1.90
2019-05-19T19:41:41.023Z,1.67
2019-05-19T19:44:10.011Z,1.53
2019-05-19T19:46:38.967Z,1.57
2019-05-19T19:49:07.967Z,1.80
2019-05-19T19:51:36.924Z,1.73
2019-05-19T19:54:05.924Z,1.80
2019-05-19T19:56:34.908Z,1.40
2019-05-19T19:59:03.993Z,1.27
2019-05-19T20:01:32.948Z,1.87
2019-05-19T20:04:01.943Z,1.90
2019-05-19T20:06:30.943Z,1.60
2019-05-19T20:08:59.899Z,1.60
2019-05-19T20:11:28.858Z,1.57
2019-05-19T20:13:57.811Z,1.67
2019-05-19T20:16:26.801Z,1.73
2019-05-19T20:18:55.795Z,1.43
2019-05-19T20:21:24.791Z,1.30
2019-05-19T20:23:53.738Z,2.00
2019-05-19T20:26:22.734Z,1.90
2019-05-19T20:28:51.672Z,1.77
2019-05-19T20:31:20.678Z,1.60
2019-05-19T20:33:49.645Z,1.97
2019-05-19T20:36:18.639Z,1.67
2019-05-19T20:38:47.596Z,1.63
2019-05-19T20:41:16.608Z,1.83
2019-05-19T20:43:45.602Z,1.73
2019-05-19T20:46:14.611Z,1.57
2019-05-19T20:48:43.667Z,1.40
2019-05-19T20:51:12.619Z,2.17
2019-05-19T20:53:41.640Z,1.80
2019-05-19T20:56:10.644Z,1.57
2019-05-19T20:58:39.637Z,2.13
2019-05-19T21:01:08.599Z,2.40
2019-05-19T21:03:37.609Z,2.40
2019-05-19T21:06:06.623Z,2.43
2019-05-19T21:08:35.587Z,1.93
2019-05-19T21:11:04.594Z,2.30
2019-05-19T21:13:33.598Z,1.90
2019-05-19T21:16:02.607Z,2.57
2019-05-19T21:18:31.571Z,2.50
2019-05-19T21:21:00.579Z,2.50
2019-05-19T21:23:29.551Z,2.30
2019-05-19T21:25:58.518Z,2.50
2019-05-19T21:28:27.626Z,3.07
2019-05-19T21:31:05.392Z,2.40
2019-05-19T21:33:27.223Z,2.30
2019-05-19T21:35:56.259Z,2.50
2019-05-19T21:38:25.224Z,2.20
2019-05-19T21:40:54.283Z,1.87
2019-05-19T21:43:23.229Z,2.47
2019-05-19T21:45:52.226Z,2.87
2019-05-19T21:48:32.091Z,2.63
2019-05-19T21:51:01.099Z,2.10
2019-05-19T21:53:30.061Z,2.27
2019-05-19T21:55:59.074Z,2.30
2019-05-19T21:58:28.042Z,2.70
2019-05-19T22:00:57.007Z,2.60
2019-05-19T22:03:26.029Z,2.60
2019-05-19T22:05:55.022Z,2.63
2019-05-19T22:08:24.028Z,2.80
2019-05-19T22:10:53.072Z,2.70
2019-05-19T22:13:22.017Z,2.50
2019-05-19T22:15:51.018Z,3.20
2019-05-19T22:18:19.996Z,2.60
2019-05-19T22:20:49.040Z,2.70
2019-05-19T22:23:17.995Z,2.80
2019-05-19T22:25:47.040Z,3.00
2019-05-19T22:28:16.010Z,2.60
2019-05-19T22:30:45.023Z,2.50
2019-05-19T22:33:14.097Z,2.80
2019-05-19T22:35:43.095Z,2.23
2019-05-19T22:38:12.054Z,2.90
2019-05-19T22:40:41.059Z,2.50
2019-05-19T22:43:10.023Z,2.77
2019-05-19T22:45:39.033Z,2.90
2019-05-19T22:48:07.998Z,3.30
2019-05-19T22:50:37.098Z,3.23
2019-05-19T22:53:06.065Z,3.43
2019-05-19T22:55:35.089Z,2.77
2019-05-19T22:58:04.085Z,3.67
2019-05-19T23:00:33.040Z,3.57
2019-05-19T23:03:02.050Z,3.27
2019-05-19T23:05:31.019Z,3.57
2019-05-19T23:08:00.058Z,3.17
2019-05-19T23:10:29.011Z,3.50
2019-05-19T23:12:58.005Z,3.87
2019-05-19T23:15:26.975Z,3.40
2019-05-19T23:17:55.955Z,3.30
2019-05-19T23:20:25.159Z,3.30
2019-05-19T23:22:54.134Z,3.57
2019-05-19T23:25:23.134Z,3.80
2019-05-19T23:27:52.090Z,3.73
2019-05-19T23:30:21.109Z,3.40
2019-05-19T23:32:50.111Z,3.53
2019-05-19T23:35:19.111Z,3.70
2019-05-19T23:37:48.091Z,3.70
2019-05-19T23:40:17.201Z,4.00
2019-05-19T23:42:46.162Z,4.20
2019-05-19T23:45:15.280Z,3.93
2019-05-19T23:47:44.295Z,4.30
2019-05-19T23:50:13.363Z,4.27
2019-05-19T23:52:42.367Z,3.87
2019-05-19T23:55:11.671Z,3.40
2019-05-19T23:57:40.626Z,3.43
